Time;durP1;ratioP1;P1;durP2;ratioP2;P2;SDS_P1;SDS_P2;PMS_P1;PMS_P2;Temp;Humidity;BMP_temperature;BMP_pressure;BME280_temperature;BME280_humidity;BME280_pressure;Samples;Min_cycle;Max_cycle;Signal;HPM_P1;HPM_P2
2021/09/10 00:05:11;;;;;;;14.33;7.17;;;;;;;17.34;59.93;100549.45;4711518;62;21224;-82
2021/09/10 00:10:16;;;;;;;14.00;7.13;;;;;;;17.31;60.27;100553.78;4668688;63;21205;-77
2021/09/10 00:15:22;;;;;;;13.40;7.20;;;;;;;17.23;60.34;100547.92;4668774;63;21189;-82
2021/09/10 00:20:28;;;;;;;14.73;6.60;;;;;;;17.19;60.50;100551.06;4668723;63;21197;-78
2021/09/10 00:25:35;;;;;;;15.30;7.83;;;;;;;17.15;60.69;100549.20;4668749;63;21146;-80
2021/09/10 00:30:40;;;;;;;11.77;7.53;;;;;;;17.13;60.73;100555.70;4668678;63;21137;-81
2021/09/10 00:35:46;;;;;;;16.33;6.70;;;;;;;17.02;60.64;100556.00;4668704;63;21232;-78
2021/09/10 00:40:52;;;;;;;14.23;6.40;;;;;;;16.94;60.85;100558.64;4668561;63;21224;-78
2021/09/10 00:45:59;;;;;;;17.60;7.73;;;;;;;16.88;61.13;100556.94;4668276;63;21618;-82
2021/09/10 00:51:05;;;;;;;19.00;6.67;;;;;;;16.90;61.34;100558.61;4668721;63;21197;-78
2021/09/10 00:56:13;;;;;;;14.90;7.37;;;;;;;16.87;61.23;100559.77;4641019;63;21205;-78
2021/09/10 01:01:19;;;;;;;12.00;6.47;;;;;;;16.71;61.21;100547.64;4668557;63;21795;-78
2021/09/10 01:06:26;;;;;;;21.80;6.97;;;;;;;16.62;61.49;100553.91;4686555;62;21211;-78
2021/09/10 01:11:32;;;;;;;12.60;6.83;;;;;;;16.55;61.80;100561.70;4705622;63;21669;-77
2021/09/10 01:16:38;;;;;;;14.00;7.43;;;;;;;16.24;61.48;100559.96;4705638;63;22151;-80
2021/09/10 01:21:43;;;;;;;14.60;8.07;;;;;;;16.10;62.28;100557.84;4705584;63;21184;-80
2021/09/10 01:26:49;;;;;;;12.07;7.13;;;;;;;16.06;62.71;100557.80;4705547;63;21133;-80
2021/09/10 01:31:56;;;;;;;12.53;7.70;;;;;;;16.07;63.11;100558.98;4705476;63;21216;-81
2021/09/10 01:37:01;;;;;;;21.17;7.00;;;;;;;16.03;62.80;100564.30;4705597;63;21245;-79
2021/09/10 01:42:07;;;;;;;13.63;7.77;;;;;;;15.97;62.84;100566.73;4705580;63;22163;-82
2021/09/10 01:47:13;;;;;;;19.00;7.57;;;;;;;15.99;63.38;100562.09;4705723;63;21192;-79
2021/09/10 01:52:19;;;;;;;26.37;7.27;;;;;;;15.99;62.96;100560.25;4705405;63;21233;-80
2021/09/10 01:57:25;;;;;;;18.27;7.20;;;;;;;15.91;62.92;100562.83;4705519;63;22206;-78
2021/09/10 02:02:30;;;;;;;15.53;6.53;;;;;;;15.79;63.26;100561.38;4706025;63;21293;-79
2021/09/10 02:07:37;;;;;;;13.73;6.97;;;;;;;15.81;63.86;100560.74;4705807;62;21290;-79
2021/09/10 02:12:43;;;;;;;9.13;5.50;;;;;;;15.88;64.17;100564.98;4705867;63;21645;-83
2021/09/10 02:17:49;;;;;;;12.33;6.73;;;;;;;15.85;63.80;100560.79;4705953;63;21273;-82
2021/09/10 02:22:55;;;;;;;10.67;6.40;;;;;;;15.83;64.30;100560.94;4706090;63;21241;-80
2021/09/10 02:28:00;;;;;;;10.57;6.50;;;;;;;15.76;64.20;100557.68;4705750;63;21733;-83
2021/09/10 02:33:06;;;;;;;11.97;5.80;;;;;;;15.73;64.60;100554.01;4705928;63;21539;-78
2021/09/10 02:38:12;;;;;;;10.40;5.97;;;;;;;15.63;64.36;100561.22;4706032;63;21196;-81
2021/09/10 02:43:19;;;;;;;12.60;5.63;;;;;;;15.63;65.03;100559.88;4705940;63;21551;-78
2021/09/10 02:48:24;;;;;;;11.87;6.60;;;;;;;15.72;65.07;100555.84;4706232;63;21258;-81
2021/09/10 02:53:30;;;;;;;18.17;6.60;;;;;;;15.78;65.06;100565.03;4705423;63;21291;-80
2021/09/10 02:58:36;;;;;;;12.53;6.57;;;;;;;15.73;64.87;100560.19;4705776;63;21129;-82
2021/09/10 03:03:42;;;;;;;18.63;7.67;;;;;;;15.73;64.97;100558.84;4705775;63;21184;-81
2021/09/10 03:08:49;;;;;;;17.53;7.40;;;;;;;15.71;64.95;100562.65;4678703;63;21226;-83
2021/09/10 03:13:55;;;;;;;19.30;9.10;;;;;;;15.66;65.12;100562.25;4668874;63;21200;-82
2021/09/10 03:19:01;;;;;;;27.97;11.87;;;;;;;15.60;64.97;100562.84;4668931;63;21137;-82
2021/09/10 03:24:07;;;;;;;26.17;10.37;;;;;;;15.55;65.24;100559.77;4668183;63;21229;-82
2021/09/10 03:29:13;;;;;;;18.83;9.23;;;;;;;15.53;65.18;100559.08;4667036;63;21181;-83
2021/09/10 03:34:21;;;;;;;23.03;8.67;;;;;;;15.51;65.30;100551.72;4667329;63;21769;-81
2021/09/10 03:39:27;;;;;;;25.03;9.57;;;;;;;15.44;65.58;100550.14;4668787;63;21272;-83
2021/09/10 03:44:33;;;;;;;13.70;8.37;;;;;;;15.38;65.57;100537.43;4668783;63;21694;-80
2021/09/10 03:49:39;;;;;;;16.83;8.03;;;;;;;15.35;65.72;100547.05;4668807;63;21204;-81
2021/09/10 03:54:45;;;;;;;16.13;9.53;;;;;;;15.34;65.83;100547.54;4668744;63;21230;-82
2021/09/10 03:59:51;;;;;;;19.37;8.77;;;;;;;15.26;65.79;100549.28;4668485;63;21208;-80
2021/09/10 04:04:57;;;;;;;48.97;10.17;;;;;;;15.25;65.72;100551.60;4668763;63;21197;-79
2021/09/10 04:10:05;;;;;;;26.40;8.67;;;;;;;15.23;65.91;100551.75;4668780;63;22185;-82
2021/09/10 04:15:11;;;;;;;27.33;8.50;;;;;;;15.21;65.86;100547.05;4670352;63;21184;-80
2021/09/10 04:20:17;;;;;;;27.27;8.17;;;;;;;15.19;66.16;100542.86;4672675;63;21293;-81
2021/09/10 04:25:23;;;;;;;16.77;7.77;;;;;;;15.13;66.14;100540.28;4672335;63;22103;-81
2021/09/10 04:30:29;;;;;;;20.57;7.53;;;;;;;15.07;66.24;100543.06;4672544;63;21177;-81
2021/09/10 04:35:35;;;;;;;13.17;7.37;;;;;;;14.98;66.11;100550.58;4672412;63;22407;-82
2021/09/10 04:40:41;;;;;;;15.53;7.00;;;;;;;14.91;66.58;100543.34;4672409;63;22394;-84
2021/09/10 04:45:47;;;;;;;37.10;9.43;;;;;;;14.91;66.70;100546.00;4677996;62;21293;-81
2021/09/10 04:50:52;;;;;;;21.10;8.70;;;;;;;14.95;67.00;100553.56;4665078;62;21308;-86
2021/09/10 04:55:58;;;;;;;30.80;8.80;;;;;;;14.94;67.35;100555.87;4664117;62;21576;-80
2021/09/10 05:01:04;;;;;;;26.93;9.43;;;;;;;14.95;67.47;100557.55;4666523;62;21220;-83
2021/09/10 05:06:09;;;;;;;32.17;9.30;;;;;;;14.95;67.62;100563.38;4660200;63;21577;-81
2021/09/10 05:11:15;;;;;;;30.00;10.87;;;;;;;14.98;67.74;100567.89;4662144;62;21305;-85
2021/09/10 05:16:21;;;;;;;39.63;11.43;;;;;;;15.08;68.02;100561.22;4661259;63;21899;-82
2021/09/10 05:21:27;;;;;;;38.27;10.30;;;;;;;15.14;68.07;100560.61;4655965;63;21212;-83
2021/09/10 05:26:33;;;;;;;36.17;10.83;;;;;;;15.18;68.20;100558.49;4659829;63;21216;-84
2021/09/10 05:31:39;;;;;;;30.93;12.23;;;;;;;15.21;68.14;100552.88;4659431;63;21218;-81
2021/09/10 05:36:45;;;;;;;34.77;12.57;;;;;;;15.26;68.36;100551.45;4659959;63;21211;-84
2021/09/10 05:41:51;;;;;;;28.50;10.80;;;;;;;15.36;68.45;100556.72;4696852;62;21579;-82
2021/09/10 05:46:57;;;;;;;29.87;10.00;;;;;;;15.50;68.63;100557.55;4659770;63;21293;-81
2021/09/10 05:52:03;;;;;;;22.30;9.10;;;;;;;15.79;68.51;100568.89;4659677;63;21586;-81
2021/09/10 05:57:09;;;;;;;22.03;6.53;;;;;;;16.03;68.07;100579.47;4659875;63;21511;-81
2021/09/10 06:02:14;;;;;;;19.77;6.93;;;;;;;16.13;67.86;100576.22;4660135;63;21180;-81
2021/09/10 06:07:20;;;;;;;13.33;5.83;;;;;;;16.37;68.44;100574.23;4660034;62;21236;-80
2021/09/10 06:12:26;;;;;;;10.40;5.37;;;;;;;16.66;68.10;100572.64;4663615;63;21235;-81
2021/09/10 06:17:31;;;;;;;12.97;5.30;;;;;;;16.91;67.43;100574.98;4663888;63;21583;-80
2021/09/10 06:22:37;;;;;;;13.40;4.63;;;;;;;17.09;67.20;100579.27;4663933;63;21157;-81
2021/09/10 06:27:43;;;;;;;9.47;4.27;;;;;;;17.30;66.89;100576.66;4664318;63;21231;-81
2021/09/10 06:32:48;;;;;;;16.57;4.23;;;;;;;17.52;65.94;100575.59;4663842;63;22494;-81
2021/09/10 06:37:54;;;;;;;21.77;5.77;;;;;;;17.62;65.27;100586.64;4664117;63;21216;-80
2021/09/10 06:43:00;;;;;;;13.90;4.27;;;;;;;17.70;65.00;100584.03;4663043;63;21293;-80
2021/09/10 06:48:06;;;;;;;15.43;4.00;;;;;;;17.77;65.39;100588.55;4660262;63;21224;-74
2021/09/10 06:53:12;;;;;;;8.73;4.07;;;;;;;17.77;64.52;100593.06;4659741;63;21820;-78
2021/09/10 06:58:18;;;;;;;10.33;4.27;;;;;;;17.80;64.95;100590.91;4659947;63;21828;-79
2021/09/10 07:03:24;;;;;;;4.80;3.50;;;;;;;17.90;64.96;100592.92;4660189;63;21161;-79
2021/09/10 07:08:29;;;;;;;9.27;4.20;;;;;;;18.03;64.96;100599.63;4665301;61;21580;-79
2021/09/10 07:13:35;;;;;;;7.87;3.70;;;;;;;18.17;64.35;100594.49;4695222;63;21176;-79
2021/09/10 07:18:41;;;;;;;8.83;3.67;;;;;;;18.39;63.92;100603.69;4695792;63;21272;-79
2021/09/10 07:23:46;;;;;;;5.40;3.57;;;;;;;18.48;62.31;100607.22;4696870;63;21280;-79
2021/09/10 07:28:57;;;;;;;5.27;3.17;;;;;;;18.60;62.10;100609.91;4758060;62;21174;-80
2021/09/10 07:34:05;;;;;;;12.43;3.10;;;;;;;18.87;62.21;100614.06;4801770;62;21667;-79
2021/09/10 07:39:11;;;;;;;12.57;3.83;;;;;;;19.06;60.74;100611.02;4797811;62;21711;-79
2021/09/10 07:44:17;;;;;;;5.97;3.67;;;;;;;19.21;60.50;100613.31;4742067;62;21225;-79
2021/09/10 07:49:23;;;;;;;10.27;3.37;;;;;;;19.35;59.98;100611.75;4705994;63;21676;-79
2021/09/10 07:54:29;;;;;;;8.77;3.43;;;;;;;19.48;60.85;100610.69;4705699;63;21207;-79
2021/09/10 07:59:34;;;;;;;10.03;3.45;;;;;;;19.64;61.72;100616.52;4705669;63;21586;-79
2021/09/10 08:04:40;;;;;;;8.03;3.35;;;;;;;19.91;60.65;100613.34;4705664;63;21240;-80
2021/09/10 08:09:46;;;;;;;13.58;3.58;;;;;;;20.11;59.99;100612.89;4694336;63;21786;-79
2021/09/10 08:14:52;;;;;;;11.22;3.27;;;;;;;20.34;58.22;100609.17;4668795;63;21197;-79
2021/09/10 08:19:58;;;;;;;9.73;3.15;;;;;;;20.61;56.72;100611.02;4668739;63;21142;-79
2021/09/10 08:25:07;;;;;;;9.63;3.25;;;;;;;20.94;56.01;100616.38;4668797;63;21196;-79
2021/09/10 08:30:14;;;;;;;11.57;3.75;;;;;;;21.26;55.83;100605.81;4665907;63;21197;-79
2021/09/10 08:35:21;;;;;;;12.03;3.37;;;;;;;21.55;53.48;100618.41;4725337;62;21214;-79
2021/09/10 08:40:27;;;;;;;19.57;3.70;;;;;;;21.79;52.96;100613.22;4771582;62;21666;-79
2021/09/10 08:45:33;;;;;;;4.72;2.27;;;;;;;22.01;52.05;100619.48;4691934;62;21129;-79
2021/09/10 08:50:38;;;;;;;5.95;2.90;;;;;;;22.24;51.14;100622.86;4668808;63;21192;-79
2021/09/10 08:55:44;;;;;;;6.53;2.95;;;;;;;22.41;50.97;100620.73;4671083;62;21184;-79
2021/09/10 09:00:49;;;;;;;7.42;3.40;;;;;;;22.69;50.10;100619.42;4771860;62;21219;-79
2021/09/10 09:05:55;;;;;;;5.80;3.20;;;;;;;22.91;49.90;100618.91;4771627;62;21182;-81
2021/09/10 09:11:13;;;;;;;8.35;2.67;;;;;;;23.18;50.22;100609.94;4713895;62;21224;-83
2021/09/10 09:16:30;;;;;;;10.25;3.37;;;;;;;23.31;48.16;100608.66;4708466;62;21192;-88
2021/09/10 09:21:38;;;;;;;13.22;2.85;;;;;;;23.47;47.46;100610.19;4713104;62;21200;-86
2021/09/10 09:26:46;;;;;;;5.30;2.85;;;;;;;23.67;49.04;100611.67;4702826;63;21191;-76
2021/09/10 09:32:04;;;;;;;10.05;3.20;;;;;;;23.83;47.82;100616.16;4709782;62;21216;-76
2021/09/10 09:37:10;;;;;;;12.68;3.60;;;;;;;24.01;46.68;100608.01;4706649;63;21664;-75
2021/09/10 09:42:16;;;;;;;12.50;3.55;;;;;;;24.18;46.58;100606.08;4705768;63;21218;-74
2021/09/10 09:47:23;;;;;;;8.85;3.62;;;;;;;24.36;45.23;100606.03;4699116;63;21120;-74
2021/09/10 09:52:29;;;;;;;18.27;3.70;;;;;;;24.57;46.46;100607.71;4705672;63;21188;-74
2021/09/10 09:57:36;;;;;;;4.33;3.58;;;;;;;24.78;44.99;100615.59;4677718;63;21176;-75
2021/09/10 10:02:42;;;;;;;3.20;2.90;;;;;;;24.97;44.71;100622.90;4705426;63;21180;-73
2021/09/10 10:08:04;;;;;;;5.58;3.77;;;;;;;25.16;44.82;100617.14;4710035;62;21192;-74
2021/09/10 10:13:13;;;;;;;7.00;3.50;;;;;;;25.23;44.28;100620.13;4677503;63;21193;-75
2021/09/10 10:18:44;;;;;;;5.97;3.52;;;;;;;25.39;45.28;100616.65;4668642;63;21181;-83
2021/09/10 10:23:54;;;;;;;8.58;3.60;;;;;;;25.54;44.45;100617.22;4641470;63;21176;-86
2021/09/10 10:29:16;;;;;;;9.83;3.72;;;;;;;25.72;43.72;100616.55;4669253;63;21181;-83
2021/09/10 10:34:22;;;;;;;13.90;3.85;;;;;;;25.86;44.48;100604.60;4667445;63;21225;-85
2021/09/10 10:39:29;;;;;;;10.35;3.75;;;;;;;26.13;43.75;100603.91;4669693;63;21251;-87
2021/09/10 10:44:40;;;;;;;10.65;3.37;;;;;;;26.34;43.78;100597.34;4669497;63;21188;-85
2021/09/10 10:49:49;;;;;;;6.08;3.02;;;;;;;26.52;43.74;100600.95;4669631;63;21188;-86
2021/09/10 10:55:24;;;;;;;7.55;3.58;;;;;;;26.70;41.82;100600.70;4669130;63;21240;-85
2021/09/10 11:00:34;;;;;;;17.98;3.85;;;;;;;26.92;42.81;100600.59;4669413;63;21591;-86
2021/09/10 11:05:43;;;;;;;6.28;2.98;;;;;;;27.05;41.09;100595.58;4691016;62;21764;-84
2021/09/10 11:10:55;;;;;;;17.55;3.33;;;;;;;27.27;41.26;100596.80;4670122;61;21176;-83
2021/09/10 11:16:04;;;;;;;5.60;4.20;;;;;;;27.47;41.61;100590.63;4669884;63;21551;-84
2021/09/10 11:21:09;;;;;;;9.75;2.95;;;;;;;27.59;40.57;100592.06;4670321;63;21184;-84
2021/09/10 11:26:15;;;;;;;7.03;3.20;;;;;;;27.74;39.91;100587.05;4671410;63;21204;-86
2021/09/10 11:31:26;;;;;;;10.08;3.40;;;;;;;27.91;38.90;100586.72;4670237;63;21204;-84
2021/09/10 11:36:32;;;;;;;10.73;3.17;;;;;;;28.10;38.09;100573.89;4670158;63;21193;-82
2021/09/10 11:41:38;;;;;;;9.38;3.42;;;;;;;28.25;37.00;100572.95;4669593;63;21200;-86
2021/09/10 11:46:47;;;;;;;5.55;3.55;;;;;;;28.37;35.77;100570.78;4664465;63;21195;-86
2021/09/10 11:51:53;;;;;;;3.45;2.80;;;;;;;28.43;36.60;100572.55;4667812;63;21322;-83
2021/09/10 11:57:00;;;;;;;8.30;3.77;;;;;;;28.60;37.20;100569.42;4669611;63;21493;-85
2021/09/10 12:02:09;;;;;;;21.55;4.47;;;;;;;28.65;36.59;100564.95;4669426;63;21551;-82
2021/09/10 12:07:15;;;;;;;4.70;3.02;;;;;;;28.70;37.14;100569.16;4641442;62;21763;-86
2021/09/10 12:12:23;;;;;;;6.45;3.47;;;;;;;28.88;36.18;100560.05;4683101;62;22210;-85
2021/09/10 12:17:38;;;;;;;11.90;3.47;;;;;;;29.03;36.08;100562.27;4705340;63;21336;-85
2021/09/10 12:22:56;;;;;;;13.03;3.10;;;;;;;29.10;36.28;100562.98;4705372;63;21176;-84
2021/09/10 12:28:10;;;;;;;6.35;3.33;;;;;;;29.27;34.67;100557.62;4704807;63;21172;-83
2021/09/10 12:33:24;;;;;;;5.25;3.85;;;;;;;29.42;34.57;100560.69;4705165;63;21232;-85
2021/09/10 12:38:34;;;;;;;4.97;3.27;;;;;;;29.53;34.07;100554.36;4691453;63;21530;-83
2021/09/10 12:43:41;;;;;;;;;;;;;;;29.52;33.74;100549.98;4704815;63;21124;-80
2021/09/10 12:48:46;;;;;;;6.70;3.25;;;;;;;29.54;33.35;100542.39;4699956;63;20161;-84
2021/09/10 12:53:53;;;;;;;12.25;3.65;;;;;;;29.48;34.09;100542.02;4706264;63;21188;-84
2021/09/10 12:59:01;;;;;;;9.03;3.17;;;;;;;29.56;33.99;100541.63;4706284;63;21830;-82
2021/09/10 13:04:07;;;;;;;17.23;2.92;;;;;;;29.66;34.32;100533.62;4706325;63;21160;-88
2021/09/10 13:09:15;;;;;;;11.55;3.77;;;;;;;29.77;34.27;100536.03;4706526;62;21097;-90
2021/09/10 13:14:22;;;;;;;13.62;3.37;;;;;;;29.89;34.13;100529.97;4680802;62;22159;-84
2021/09/10 13:19:28;;;;;;;8.68;4.03;;;;;;;29.88;32.74;100531.05;4669675;63;21193;-84
2021/09/10 13:24:34;;;;;;;7.12;3.27;;;;;;;29.94;33.93;100529.24;4669919;63;21185;-86
2021/09/10 13:29:40;;;;;;;10.70;3.90;;;;;;;29.99;33.17;100526.62;4670557;63;21639;-85
2021/09/10 13:34:47;;;;;;;3.33;2.70;;;;;;;29.98;33.61;100519.50;4669786;63;21185;-85
2021/09/10 13:39:53;;;;;;;12.35;4.28;;;;;;;30.10;33.02;100516.73;4669268;63;21237;-74
2021/09/10 13:44:59;;;;;;;3.55;2.67;;;;;;;30.19;32.44;100505.68;4668243;63;21184;-76
2021/09/10 13:50:07;;;;;;;5.33;2.95;;;;;;;30.20;32.87;100514.16;4668078;63;21133;-73
2021/09/10 13:55:13;;;;;;;8.90;3.25;;;;;;;30.17;31.84;100511.37;4663450;63;21140;-88
2021/09/10 14:00:20;;;;;;;11.15;3.70;;;;;;;30.08;32.53;100503.33;4663000;63;21145;-85
2021/09/10 14:05:26;;;;;;;9.53;3.83;;;;;;;30.07;33.25;100494.86;4663011;62;21247;-85
2021/09/10 14:10:32;;;;;;;3.55;2.55;;;;;;;30.18;33.84;100498.56;4662938;63;21247;-89
2021/09/10 14:15:38;;;;;;;7.80;3.72;;;;;;;30.19;32.56;100498.86;4693865;61;21578;-85
2021/09/10 14:20:45;;;;;;;5.72;2.90;;;;;;;30.20;33.76;100499.15;4697413;63;21574;-84
2021/09/10 14:25:53;;;;;;;3.47;3.17;;;;;;;30.29;34.52;100501.73;4697592;63;21304;-75
2021/09/10 14:30:59;;;;;;;11.38;4.20;;;;;;;30.26;33.15;100503.05;4696784;63;21208;-85
2021/09/10 14:36:05;;;;;;;6.37;3.98;;;;;;;30.20;33.32;100509.53;4698193;63;21212;-84
2021/09/10 14:41:11;;;;;;;7.47;3.37;;;;;;;30.14;33.53;100507.78;4699112;63;21775;-85
2021/09/10 14:46:17;;;;;;;8.23;3.50;;;;;;;30.10;33.07;100505.25;4698590;63;22437;-86
2021/09/10 14:51:22;;;;;;;6.45;3.60;;;;;;;30.00;33.43;100510.55;4699249;63;21300;-86
2021/09/10 14:56:28;;;;;;;15.45;3.60;;;;;;;29.86;34.32;100509.17;4697144;63;21591;-81
2021/09/10 15:01:35;;;;;;;12.60;3.33;;;;;;;29.79;34.32;100499.77;4696268;63;21251;-84
2021/09/10 15:06:42;;;;;;;14.95;3.70;;;;;;;29.76;34.47;100503.02;4698023;62;21220;-82
2021/09/10 15:11:47;;;;;;;9.73;4.22;;;;;;;29.70;34.70;100497.17;4696655;63;21211;-83
2021/09/10 15:16:53;;;;;;;10.38;4.08;;;;;;;29.74;35.39;100499.70;4707950;61;21211;-82
2021/09/10 15:22:35;;;;;;;12.63;3.92;;;;;;;29.77;35.44;100497.86;4700516;63;21635;-82
2021/09/10 15:27:41;;;;;;;4.85;2.70;;;;;;;29.88;35.69;100498.86;4695127;63;21239;-80
2021/09/10 15:32:46;;;;;;;4.85;4.00;;;;;;;29.80;35.39;100495.98;4696964;63;21332;-80
2021/09/10 15:37:52;;;;;;;8.65;3.55;;;;;;;29.75;35.96;100493.19;4696785;63;21220;-82
2021/09/10 15:42:58;;;;;;;11.25;4.40;;;;;;;29.78;36.84;100493.23;4698893;63;21289;-83
2021/09/10 15:48:05;;;;;;;8.80;4.03;;;;;;;29.77;37.31;100495.13;4700416;63;22471;-82
2021/09/10 15:53:13;;;;;;;7.22;3.55;;;;;;;29.73;36.89;100502.97;4715429;62;21496;-84
2021/09/10 15:58:24;;;;;;;8.30;3.67;;;;;;;29.67;36.89;100503.94;4702341;63;21233;-91
2021/09/10 16:03:30;;;;;;;11.60;4.42;;;;;;;29.63;37.04;100500.60;4702315;63;21891;-88
2021/09/10 16:08:35;;;;;;;14.70;6.22;;;;;;;29.55;37.35;100501.80;4702811;63;21245;-83
2021/09/10 16:13:41;;;;;;;9.68;3.72;;;;;;;29.50;37.38;100510.41;4695282;61;21609;-88
2021/09/10 16:18:47;;;;;;;20.27;5.70;;;;;;;29.47;37.69;100518.56;4663956;63;21768;-87
2021/09/10 16:23:52;;;;;;;10.93;4.97;;;;;;;29.42;37.94;100511.64;4663507;63;21690;-82
2021/09/10 16:28:58;;;;;;;13.90;4.97;;;;;;;29.29;38.19;100511.36;4659883;63;21206;-80
2021/09/10 16:34:04;;;;;;;11.22;3.90;;;;;;;29.18;38.47;100512.77;4672104;63;21750;-82
2021/09/10 16:39:10;;;;;;;8.70;4.28;;;;;;;29.13;38.38;100514.84;4675329;63;21189;-80
2021/09/10 16:44:16;;;;;;;10.60;4.28;;;;;;;29.00;38.85;100507.78;4672073;63;21212;-81
2021/09/10 16:49:22;;;;;;;7.97;4.15;;;;;;;28.91;39.19;100507.01;4641463;63;21722;-80
2021/09/10 16:54:28;;;;;;;16.52;5.83;;;;;;;28.81;39.51;100516.33;4672308;63;21623;-80
2021/09/10 16:59:35;;;;;;;32.35;9.70;;;;;;;28.68;39.85;100510.57;4673818;62;21225;-79
2021/09/10 17:04:41;;;;;;;9.80;5.90;;;;;;;28.64;40.20;100510.21;4672129;63;21706;-80
2021/09/10 17:09:46;;;;;;;9.80;6.83;;;;;;;28.55;40.19;100503.48;4662757;63;21628;-81
2021/09/10 17:14:52;;;;;;;21.45;5.65;;;;;;;28.34;40.53;100502.17;4662861;63;21252;-84
2021/09/10 17:19:58;;;;;;;11.78;5.58;;;;;;;28.12;40.65;100514.64;4663335;63;21165;-80
2021/09/10 17:25:05;;;;;;;19.12;9.50;;;;;;;27.89;40.62;100516.79;4663346;63;22623;-78
2021/09/10 17:30:12;;;;;;;10.93;5.87;;;;;;;27.72;40.79;100517.15;4663419;63;21277;-77
2021/09/10 17:35:17;;;;;;;21.15;6.80;;;;;;;27.58;40.90;100523.30;4663450;63;21208;-76
2021/09/10 17:40:23;;;;;;;19.95;9.70;;;;;;;27.45;41.01;100525.34;4663112;63;21216;-78
2021/09/10 17:45:29;;;;;;;22.82;9.48;;;;;;;27.35;41.20;100529.94;4659628;63;21224;-78
2021/09/10 17:50:35;;;;;;;18.27;8.45;;;;;;;27.26;41.46;100532.16;4659876;63;21261;-80
2021/09/10 17:55:41;;;;;;;20.68;5.35;;;;;;;27.17;41.43;100538.13;4659713;63;22465;-79
2021/09/10 18:00:46;;;;;;;15.28;5.40;;;;;;;27.02;41.44;100539.88;4659706;63;21614;-79
2021/09/10 18:05:53;;;;;;;9.28;4.65;;;;;;;26.91;41.46;100544.11;4659778;63;21248;-78
2021/09/10 18:10:58;;;;;;;12.05;5.78;;;;;;;26.78;41.49;100541.54;4659889;63;21146;-80
2021/09/10 18:16:07;;;;;;;13.08;4.78;;;;;;;26.65;41.57;100545.75;4666974;61;21299;-77
2021/09/10 18:21:12;;;;;;;13.13;5.95;;;;;;;26.54;42.07;100543.77;4672285;63;21192;-79
2021/09/10 18:26:18;;;;;;;36.30;12.23;;;;;;;26.46;42.26;100540.80;4673024;63;21194;-79
2021/09/10 18:31:24;;;;;;;14.70;6.42;;;;;;;26.39;42.24;100542.76;4672872;63;21202;-80
2021/09/10 18:36:31;;;;;;;29.20;6.25;;;;;;;26.31;42.47;100543.55;4671210;63;21213;-79
2021/09/10 18:41:37;;;;;;;21.45;6.20;;;;;;;26.18;42.72;100550.70;4670721;63;21233;-79
2021/09/10 18:46:42;;;;;;;38.50;8.45;;;;;;;25.97;42.87;100537.53;4668672;63;21204;-78
2021/09/10 18:51:51;;;;;;;27.02;11.55;;;;;;;25.75;43.20;100542.45;4668833;63;22182;-80
2021/09/10 18:56:57;;;;;;;16.00;8.93;;;;;;;25.64;43.60;100545.86;4668047;63;21580;-83
2021/09/10 19:02:03;;;;;;;32.95;9.20;;;;;;;25.57;43.83;100556.69;4670328;63;21198;-80
2021/09/10 19:07:09;;;;;;;18.15;6.80;;;;;;;25.46;44.41;100553.31;4672831;63;21291;-79
2021/09/10 19:12:15;;;;;;;34.88;8.00;;;;;;;25.40;44.83;100556.03;4672114;63;21233;-81
2021/09/10 19:17:22;;;;;;;15.28;7.67;;;;;;;25.14;45.06;100569.98;4673257;62;22059;-81
2021/09/10 19:22:28;;;;;;;21.85;7.78;;;;;;;24.79;45.93;100572.10;4672708;62;21557;-82
2021/09/10 19:27:35;;;;;;;23.73;7.00;;;;;;;24.66;46.94;100577.53;4670483;62;21126;-81
2021/09/10 19:32:41;;;;;;;40.88;7.42;;;;;;;24.55;47.38;100574.11;4668618;63;21153;-80
2021/09/10 19:37:47;;;;;;;30.08;6.28;;;;;;;24.46;47.75;100575.34;4675328;62;21212;-81
2021/09/10 19:42:54;;;;;;;41.40;8.10;;;;;;;24.30;47.70;100578.45;4668509;63;21225;-80
2021/09/10 19:47:59;;;;;;;25.32;7.28;;;;;;;24.12;47.83;100584.46;4668331;63;21189;-80
2021/09/10 19:53:05;;;;;;;42.88;9.23;;;;;;;24.05;48.49;100587.66;4669053;63;21652;-81
2021/09/10 19:58:11;;;;;;;63.70;10.40;;;;;;;23.99;48.63;100588.47;4668289;63;21168;-83
2021/09/10 20:03:17;;;;;;;42.00;10.38;;;;;;;23.78;48.53;100594.35;4668387;63;21133;-79
2021/09/10 20:08:22;;;;;;;28.47;8.10;;;;;;;23.65;49.09;100588.08;4668700;63;21133;-80
2021/09/10 20:13:28;;;;;;;17.32;7.33;;;;;;;23.53;49.26;100586.45;4678351;62;21197;-80
2021/09/10 20:18:34;;;;;;;11.35;6.37;;;;;;;23.34;49.67;100588.02;4692809;62;22156;-83
2021/09/10 20:23:40;;;;;;;16.45;5.80;;;;;;;23.07;49.86;100592.94;4705012;63;21192;-83
2021/09/10 20:28:46;;;;;;;13.30;6.67;;;;;;;22.70;50.40;100596.30;4705055;63;21685;-83
2021/09/10 20:33:51;;;;;;;20.72;8.38;;;;;;;22.52;51.26;100595.11;4704865;63;21203;-82
2021/09/10 20:38:58;;;;;;;18.42;6.95;;;;;;;22.55;52.08;100598.27;4705104;63;21619;-84
2021/09/10 20:44:04;;;;;;;30.50;7.22;;;;;;;22.59;52.20;100599.55;4705166;63;21224;-82
2021/09/10 20:49:10;;;;;;;29.20;8.23;;;;;;;22.56;52.11;100603.14;4705237;63;21196;-79
2021/09/10 20:54:16;;;;;;;57.27;10.53;;;;;;;22.56;52.19;100606.67;4705413;63;21152;-81
2021/09/10 20:59:21;;;;;;;75.62;11.88;;;;;;;22.53;52.44;100607.56;4705486;63;21202;-82
2021/09/10 21:04:27;;;;;;;43.35;9.48;;;;;;;22.48;52.40;100610.00;4705790;63;21634;-81
2021/09/10 21:09:32;;;;;;;27.27;8.00;;;;;;;22.39;52.48;100613.36;4705977;63;21211;-81
2021/09/10 21:14:38;;;;;;;11.78;5.25;;;;;;;22.29;52.75;100613.69;4706680;62;21184;-82
2021/09/10 21:19:44;;;;;;;14.38;5.33;;;;;;;22.09;52.73;100607.27;4705799;63;21533;-78
2021/09/10 21:24:50;;;;;;;11.22;5.28;;;;;;;21.84;53.33;100614.01;4705689;63;21168;-81
2021/09/10 21:29:56;;;;;;;17.65;7.25;;;;;;;21.60;53.88;100615.99;4706189;63;21621;-79
2021/09/10 21:35:03;;;;;;;20.45;7.25;;;;;;;21.55;54.35;100613.02;4706072;63;21224;-81
2021/09/10 21:40:09;;;;;;;10.45;5.95;;;;;;;21.36;54.61;100619.84;4705448;63;21137;-81
2021/09/10 21:45:15;;;;;;;12.43;5.75;;;;;;;21.31;55.74;100618.72;4705482;63;22176;-83
2021/09/10 21:50:21;;;;;;;32.95;11.30;;;;;;;21.37;55.84;100615.29;4705267;63;21172;-83
2021/09/10 21:55:27;;;;;;;29.48;7.40;;;;;;;21.41;55.67;100613.87;4705462;63;21576;-81
2021/09/10 22:00:33;;;;;;;23.50;7.00;;;;;;;21.35;55.82;100618.67;4705838;63;21833;-80
2021/09/10 22:05:38;;;;;;;17.60;6.08;;;;;;;21.33;56.20;100609.44;4705671;63;21224;-80
2021/09/10 22:10:45;;;;;;;36.65;6.80;;;;;;;21.20;56.45;100618.68;4703178;63;22182;-82
2021/09/10 22:15:50;;;;;;;22.10;6.40;;;;;;;21.14;56.34;100616.69;4708001;62;21104;-82
2021/09/10 22:20:56;;;;;;;33.83;6.10;;;;;;;21.08;56.90;100619.59;4705493;63;21184;-80
2021/09/10 22:26:01;;;;;;;30.80;7.25;;;;;;;20.99;56.81;100619.36;4761594;62;21235;-80
2021/09/10 22:31:07;;;;;;;30.57;6.67;;;;;;;21.01;57.22;100613.30;4708264;63;21212;-80
2021/09/10 22:36:15;;;;;;;30.40;7.15;;;;;;;20.88;56.96;100614.95;4708914;62;21193;-80
2021/09/10 22:41:21;;;;;;;21.57;6.25;;;;;;;20.82;57.30;100612.48;4714005;62;21121;-81
2021/09/10 22:46:26;;;;;;;16.77;5.87;;;;;;;20.79;57.47;100617.38;4710642;62;21206;-81
2021/09/10 22:51:32;;;;;;;16.12;5.47;;;;;;;20.66;57.83;100612.12;4714135;62;21316;-81
2021/09/10 22:56:38;;;;;;;30.62;7.37;;;;;;;20.66;57.98;100617.50;4709007;63;21232;-81
2021/09/10 23:01:44;;;;;;;20.12;6.87;;;;;;;20.69;58.23;100614.96;4708935;63;21228;-80
2021/09/10 23:06:50;;;;;;;30.43;6.70;;;;;;;20.68;58.24;100612.78;4709176;63;21224;-80
2021/09/10 23:11:56;;;;;;;17.50;5.70;;;;;;;20.61;58.18;100605.14;4709167;63;21685;-80
2021/09/10 23:17:02;;;;;;;13.58;5.33;;;;;;;20.47;58.32;100609.13;4709190;62;21589;-80
2021/09/10 23:22:07;;;;;;;12.23;5.60;;;;;;;20.23;58.67;100614.14;4709237;63;21196;-81
2021/09/10 23:27:13;;;;;;;20.30;8.25;;;;;;;20.11;59.47;100616.92;4709372;63;21133;-80
2021/09/10 23:32:21;;;;;;;10.98;5.87;;;;;;;20.20;59.99;100618.52;4709366;63;21213;-80
2021/09/10 23:37:27;;;;;;;16.62;7.03;;;;;;;20.19;59.70;100615.00;4708771;63;21192;-80